DLH726 EDDM-ZSPD
Flight info
| Callsign | DLH726 |
|---|---|
| Flight time | N/A |
| Altitude | 37000 |
| Route | KIRDI2E KIRDI DCT BUWOQ DCT OBFEZ DCT STEIN DCT TEGRI DCT DINRO DCT UDROS DCT BAMUP DCT ROLIN/N0479F390 DCT TAGAR DCT BT DCT BARAD M747 SUBUT T916 LEYLA N644 NIJAT L88 METKA B476 TIMGA A480 OTBOR/K0904F390 N147 ELAHA Z621 ARBOL M610 USUGA/K0900F410 M610 RULAD/K0900S1250 A343 POSOT B215 FKG W188 LIKMI W270 DKO W69 HUR B339 SOTMU/K0878S1220 W98 ELKUR W40 DOXAB/K0874S1250 W40 YQG/K0874S1220 W142 DALIM/K0872S1250 A593 DPX A470 DALNU W166 ZJ W167 SASAN SAS81A |
| Aircraft | A359/H-SADE2E3GHIJ1J2J3J4J5M1P2RWXYZ/LB1D1 |
Departure
| Time | 2026-04-30 21:00 |
|---|---|
| Airport | Munich Airport (EDDM) |
Arrival
| Time | N/A |
|---|---|
| Airport | Shanghai Pudong International Airport (ZSPD) |
| Time | Latitude | Longitude | Altitude | Speed | Heading |
|---|---|---|---|---|---|
| 2026-04-30 20:19 | 48.35407 | 11.79747 | 1492 ft | 0 kts | 83° |
| 2026-04-30 20:48 | 48.35401 | 11.79672 | 1477 ft | 3 kts | 83° |
| 2026-04-30 20:48 | 48.35399 | 11.79640 | 1491 ft | 4 kts | 98° |
| 2026-04-30 20:48 | 48.35409 | 11.79606 | 1476 ft | 4 kts | 143° |
| 2026-04-30 20:48 | 48.35431 | 11.79594 | 1479 ft | 4 kts | 173° |
| 2026-04-30 20:49 | 48.35456 | 11.79590 | 1491 ft | 2 kts | 173° |
| 2026-04-30 20:49 | 48.35457 | 11.79589 | 1491 ft | 0 kts | 173° |
| 2026-04-30 20:51 | 48.35429 | 11.79595 | 1480 ft | 7 kts | 174° |
| 2026-04-30 20:51 | 48.35363 | 11.79606 | 1476 ft | 12 kts | 173° |
| 2026-04-30 20:52 | 48.35267 | 11.79622 | 1484 ft | 15 kts | 173° |
| 2026-04-30 20:52 | 48.35163 | 11.79640 | 1476 ft | 15 kts | 173° |
| 2026-04-30 20:52 | 48.34941 | 11.79679 | 1491 ft | 17 kts | 173° |
| 2026-04-30 20:53 | 48.34826 | 11.79683 | 1487 ft | 16 kts | 207° |
| 2026-04-30 20:53 | 48.34790 | 11.79536 | 1478 ft | 16 kts | 263° |
| 2026-04-30 20:53 | 48.34776 | 11.79367 | 1485 ft | 17 kts | 263° |
| 2026-04-30 20:54 | 48.34749 | 11.79004 | 1482 ft | 18 kts | 263° |
| 2026-04-30 20:54 | 48.34734 | 11.78810 | 1480 ft | 19 kts | 263° |
| 2026-04-30 20:54 | 48.34718 | 11.78609 | 1483 ft | 20 kts | 263° |
| 2026-04-30 20:55 | 48.34686 | 11.78189 | 1482 ft | 21 kts | 263° |
| 2026-04-30 20:55 | 48.34669 | 11.77970 | 1481 ft | 21 kts | 263° |
| 2026-04-30 20:55 | 48.34652 | 11.77750 | 1477 ft | 22 kts | 263° |
| 2026-04-30 20:56 | 48.34617 | 11.77290 | 1487 ft | 23 kts | 263° |
| 2026-04-30 20:56 | 48.34598 | 11.77054 | 1485 ft | 23 kts | 263° |
| 2026-04-30 20:56 | 48.34561 | 11.76569 | 1482 ft | 24 kts | 264° |
| 2026-04-30 20:57 | 48.34542 | 11.76321 | 1484 ft | 24 kts | 263° |
| 2026-04-30 20:57 | 48.34522 | 11.76068 | 1476 ft | 25 kts | 263° |
| 2026-04-30 20:57 | 48.34503 | 11.75812 | 1483 ft | 25 kts | 263° |
| 2026-04-30 20:58 | 48.34463 | 11.75292 | 1479 ft | 25 kts | 263° |
| 2026-04-30 20:58 | 48.34426 | 11.75080 | 1476 ft | 17 kts | 214° |
| 2026-04-30 20:58 | 48.34309 | 11.75078 | 1486 ft | 17 kts | 173° |
| 2026-04-30 20:58 | 48.34187 | 11.75101 | 1482 ft | 16 kts | 169° |
| 2026-04-30 20:59 | 48.34079 | 11.75244 | 1481 ft | 12 kts | 88° |
| 2026-04-30 20:59 | 48.34097 | 11.75482 | 1491 ft | 49 kts | 83° |
| 2026-04-30 21:00 | 48.34268 | 11.77691 | 1482 ft | 158 kts | 83° |
| 2026-04-30 21:00 | 48.34538 | 11.81057 | 2794 ft | 157 kts | 85° |
| 2026-04-30 21:01 | 48.34788 | 11.84645 | 3453 ft | 190 kts | 85° |
| 2026-04-30 21:01 | 48.34941 | 11.86689 | 3819 ft | 204 kts | 84° |
| 2026-04-30 21:01 | 48.35281 | 11.91055 | 4862 ft | 218 kts | 84° |
| 2026-04-30 21:02 | 48.35283 | 11.93350 | 5418 ft | 223 kts | 100° |
| 2026-04-30 21:02 | 48.34789 | 11.95651 | 5773 ft | 241 kts | 111° |
| 2026-04-30 21:02 | 48.34085 | 11.98013 | 6236 ft | 252 kts | 113° |
| 2026-04-30 21:02 | 48.33350 | 12.00444 | 6842 ft | 260 kts | 113° |
| 2026-04-30 21:03 | 48.32599 | 12.02942 | 7475 ft | 264 kts | 112° |
| 2026-04-30 21:03 | 48.31845 | 12.05470 | 8228 ft | 265 kts | 112° |
| 2026-04-30 21:03 | 48.31093 | 12.08009 | 8962 ft | 267 kts | 111° |
| 2026-04-30 21:03 | 48.30344 | 12.10540 | 9697 ft | 270 kts | 111° |
| 2026-04-30 21:04 | 48.29578 | 12.13133 | 10426 ft | 273 kts | 111° |
| 2026-04-30 21:04 | 48.28807 | 12.15751 | 11096 ft | 276 kts | 110° |
| 2026-04-30 21:04 | 48.27232 | 12.21067 | 12432 ft | 281 kts | 110° |
| 2026-04-30 21:05 | 48.26433 | 12.23764 | 13113 ft | 284 kts | 109° |
| 2026-04-30 21:05 | 48.25624 | 12.26492 | 13786 ft | 287 kts | 109° |
| 2026-04-30 21:05 | 48.24820 | 12.29205 | 14390 ft | 290 kts | 109° |
| 2026-04-30 21:05 | 48.24002 | 12.31996 | 14962 ft | 292 kts | 107° |
| 2026-04-30 21:06 | 48.23488 | 12.34918 | 15493 ft | 291 kts | 92° |
| 2026-04-30 21:06 | 48.23376 | 12.37996 | 15768 ft | 302 kts | 87° |
| 2026-04-30 21:06 | 48.23355 | 12.41223 | 16017 ft | 316 kts | 87° |
| 2026-04-30 21:06 | 48.23332 | 12.44592 | 16254 ft | 330 kts | 87° |
| 2026-04-30 21:07 | 48.23299 | 12.48100 | 16502 ft | 343 kts | 87° |
| 2026-04-30 21:07 | 48.23258 | 12.51743 | 16818 ft | 354 kts | 87° |
| 2026-04-30 21:07 | 48.23202 | 12.55410 | 17325 ft | 359 kts | 89° |
| 2026-04-30 21:07 | 48.22962 | 12.59159 | 17905 ft | 364 kts | 93° |
| 2026-04-30 21:08 | 48.22612 | 12.62938 | 18492 ft | 368 kts | 94° |
| 2026-04-30 21:08 | 48.22246 | 12.66757 | 19030 ft | 371 kts | 94° |
| 2026-04-30 21:08 | 48.21879 | 12.70597 | 19588 ft | 373 kts | 94° |
| 2026-04-30 21:08 | 48.21510 | 12.74461 | 20136 ft | 376 kts | 93° |
| 2026-04-30 21:09 | 48.21137 | 12.78360 | 20700 ft | 379 kts | 93° |
| 2026-04-30 21:09 | 48.20844 | 12.82283 | 21246 ft | 379 kts | 88° |
| 2026-04-30 21:09 | 48.20767 | 12.86227 | 21791 ft | 379 kts | 85° |
| 2026-04-30 21:09 | 48.20792 | 12.90136 | 22340 ft | 381 kts | 84° |
| 2026-04-30 21:10 | 48.20867 | 12.94116 | 22930 ft | 382 kts | 83° |
| 2026-04-30 21:10 | 48.20957 | 12.98095 | 23540 ft | 383 kts | 83° |
| 2026-04-30 21:10 | 48.21044 | 13.02105 | 24049 ft | 386 kts | 83° |
| 2026-04-30 21:10 | 48.21121 | 13.06141 | 24492 ft | 389 kts | 83° |
| 2026-04-30 21:11 | 48.21187 | 13.10176 | 24982 ft | 390 kts | 83° |
| 2026-04-30 21:11 | 48.21245 | 13.14246 | 25480 ft | 391 kts | 83° |
| 2026-04-30 21:11 | 48.21296 | 13.18329 | 25969 ft | 392 kts | 83° |
| 2026-04-30 21:11 | 48.21345 | 13.22419 | 26432 ft | 393 kts | 83° |
| 2026-04-30 21:12 | 48.21393 | 13.26472 | 26913 ft | 395 kts | 83° |
| 2026-04-30 21:12 | 48.21441 | 13.30593 | 27399 ft | 396 kts | 83° |
| 2026-04-30 21:12 | 48.21487 | 13.34724 | 27866 ft | 397 kts | 83° |
| 2026-04-30 21:12 | 48.21533 | 13.38869 | 28383 ft | 398 kts | 83° |
| 2026-04-30 21:13 | 48.21575 | 13.43003 | 28988 ft | 396 kts | 83° |
| 2026-04-30 21:13 | 48.21618 | 13.47137 | 29439 ft | 397 kts | 83° |
| 2026-04-30 21:13 | 48.21661 | 13.51285 | 29822 ft | 399 kts | 82° |
| 2026-04-30 21:13 | 48.21703 | 13.55463 | 30206 ft | 401 kts | 83° |
| 2026-04-30 21:14 | 48.21742 | 13.59595 | 30563 ft | 403 kts | 82° |
| 2026-04-30 21:14 | 48.21783 | 13.63810 | 30854 ft | 406 kts | 82° |
| 2026-04-30 21:14 | 48.21822 | 13.68054 | 31105 ft | 409 kts | 83° |
| 2026-04-30 21:14 | 48.21858 | 13.72332 | 31374 ft | 411 kts | 83° |
| 2026-04-30 21:15 | 48.21892 | 13.76630 | 31623 ft | 414 kts | 83° |
| 2026-04-30 21:15 | 48.21924 | 13.80960 | 31881 ft | 416 kts | 83° |
| 2026-04-30 21:15 | 48.21953 | 13.85310 | 32237 ft | 417 kts | 83° |
| 2026-04-30 21:15 | 48.21980 | 13.89664 | 32457 ft | 420 kts | 83° |
| 2026-04-30 21:16 | 48.21954 | 13.94012 | 32654 ft | 426 kts | 86° |
| 2026-04-30 21:16 | 48.21592 | 13.98517 | 32869 ft | 436 kts | 93° |
| 2026-04-30 21:16 | 48.20797 | 14.02901 | 33088 ft | 447 kts | 102° |
| 2026-04-30 21:16 | 48.19670 | 14.07257 | 33392 ft | 450 kts | 103° |
| 2026-04-30 21:17 | 48.18447 | 14.11577 | 33688 ft | 451 kts | 105° |
| 2026-04-30 21:17 | 48.17175 | 14.15885 | 33976 ft | 452 kts | 105° |
| 2026-04-30 21:17 | 48.15885 | 14.20191 | 34258 ft | 453 kts | 105° |
| 2026-04-30 21:17 | 48.14594 | 14.24495 | 34511 ft | 454 kts | 105° |
| 2026-04-30 21:18 | 48.12029 | 14.33119 | 34819 ft | 457 kts | 105° |
| 2026-04-30 21:18 | 48.10740 | 14.37471 | 35026 ft | 458 kts | 105° |
| 2026-04-30 21:18 | 48.09452 | 14.41825 | 35214 ft | 459 kts | 106° |
| 2026-04-30 21:19 | 48.08160 | 14.46192 | 35390 ft | 459 kts | 106° |
| 2026-04-30 21:19 | 48.06864 | 14.50567 | 35573 ft | 460 kts | 106° |
| 2026-04-30 21:19 | 48.05567 | 14.54935 | 35739 ft | 461 kts | 106° |
| 2026-04-30 21:19 | 48.04264 | 14.59316 | 35925 ft | 461 kts | 107° |
| 2026-04-30 21:20 | 48.02954 | 14.63709 | 36062 ft | 464 kts | 107° |
| 2026-04-30 21:20 | 48.01637 | 14.68116 | 36176 ft | 466 kts | 107° |
| 2026-04-30 21:20 | 48.00331 | 14.72477 | 36351 ft | 466 kts | 107° |
| 2026-04-30 21:20 | 47.99006 | 14.76898 | 36504 ft | 467 kts | 107° |
| 2026-04-30 21:21 | 47.97675 | 14.81327 | 36665 ft | 468 kts | 108° |
| 2026-04-30 21:21 | 47.96344 | 14.85750 | 36814 ft | 468 kts | 108° |
| 2026-04-30 21:21 | 47.93671 | 14.94610 | 37125 ft | 469 kts | 108° |
| 2026-04-30 21:22 | 47.92328 | 14.99049 | 37308 ft | 470 kts | 108° |
| 2026-04-30 21:22 | 47.88275 | 15.12409 | 37431 ft | 478 kts | 109° |
| 2026-04-30 21:23 | 47.86898 | 15.16930 | 37431 ft | 479 kts | 109° |
| 2026-04-30 21:23 | 47.82755 | 15.30460 | 37432 ft | 478 kts | 109° |
| 2026-04-30 21:24 | 47.80003 | 15.39469 | 37441 ft | 478 kts | 109° |
| 2026-04-30 21:24 | 47.77300 | 15.48422 | 37433 ft | 478 kts | 109° |
| 2026-04-30 21:25 | 47.73211 | 15.61931 | 37439 ft | 478 kts | 109° |
| 2026-04-30 21:26 | 47.69089 | 15.75428 | 37437 ft | 478 kts | 109° |
| 2026-04-30 21:27 | 47.64967 | 15.88850 | 37432 ft | 480 kts | 109° |
| 2026-04-30 21:27 | 47.62190 | 15.97856 | 37431 ft | 480 kts | 109° |
| 2026-04-30 21:28 | 47.58019 | 16.11323 | 37436 ft | 480 kts | 110° |
| 2026-04-30 21:29 | 47.53842 | 16.24736 | 37414 ft | 481 kts | 110° |
| 2026-04-30 21:30 | 47.46805 | 16.47169 | 37408 ft | 481 kts | 110° |
| 2026-04-30 21:31 | 47.40414 | 16.69897 | 37395 ft | 481 kts | 104° |
| 2026-04-30 21:32 | 47.37150 | 16.83809 | 37419 ft | 480 kts | 104° |
| 2026-04-30 21:32 | 47.34953 | 16.93133 | 37393 ft | 483 kts | 105° |
| 2026-04-30 21:33 | 47.31621 | 17.07146 | 37383 ft | 483 kts | 105° |
| 2026-04-30 21:34 | 47.29385 | 17.16484 | 37380 ft | 483 kts | 105° |
| 2026-04-30 21:34 | 47.26033 | 17.30411 | 37376 ft | 484 kts | 105° |
| 2026-04-30 21:35 | 47.23774 | 17.39757 | 37376 ft | 485 kts | 105° |
| 2026-04-30 21:35 | 47.21506 | 17.49096 | 37375 ft | 484 kts | 105° |
| 2026-04-30 21:36 | 47.19233 | 17.58417 | 37377 ft | 484 kts | 105° |
| 2026-04-30 21:37 | 47.14668 | 17.77029 | 37375 ft | 487 kts | 106° |
| 2026-04-30 21:37 | 47.12360 | 17.86372 | 37376 ft | 487 kts | 106° |
| 2026-04-30 21:38 | 47.10045 | 17.95705 | 37371 ft | 487 kts | 106° |
| 2026-04-30 21:38 | 47.07736 | 18.04979 | 37369 ft | 487 kts | 106° |
| 2026-04-30 21:39 | 47.05405 | 18.14303 | 37373 ft | 487 kts | 107° |
| 2026-04-30 21:39 | 47.03062 | 18.23637 | 37371 ft | 488 kts | 107° |
| 2026-04-30 21:40 | 47.00713 | 18.32952 | 37374 ft | 487 kts | 107° |
| 2026-04-30 21:40 | 46.98367 | 18.42221 | 37375 ft | 489 kts | 107° |
| 2026-04-30 21:41 | 46.95992 | 18.51569 | 37373 ft | 490 kts | 107° |
| 2026-04-30 21:41 | 46.93608 | 18.60910 | 37373 ft | 490 kts | 107° |
| 2026-04-30 21:42 | 46.91216 | 18.70250 | 37376 ft | 490 kts | 107° |
| 2026-04-30 21:42 | 46.88818 | 18.79576 | 37364 ft | 491 kts | 107° |
| 2026-04-30 21:43 | 46.86814 | 18.87341 | 37383 ft | 491 kts | 107° |
| 2026-04-30 21:43 | 46.84000 | 18.98190 | 37381 ft | 492 kts | 108° |
| 2026-04-30 21:44 | 46.81565 | 19.07545 | 37397 ft | 493 kts | 108° |
| 2026-04-30 21:44 | 46.79134 | 19.16841 | 37373 ft | 494 kts | 108° |
| 2026-04-30 21:45 | 46.76672 | 19.26215 | 37378 ft | 495 kts | 108° |
| 2026-04-30 21:45 | 46.74204 | 19.35577 | 37375 ft | 495 kts | 108° |
| 2026-04-30 21:46 | 46.71730 | 19.44930 | 37386 ft | 495 kts | 108° |
| 2026-04-30 21:46 | 46.69259 | 19.54241 | 37372 ft | 496 kts | 108° |
| 2026-04-30 21:47 | 46.66758 | 19.63614 | 37370 ft | 497 kts | 108° |
| 2026-04-30 21:47 | 46.64249 | 19.72975 | 37372 ft | 497 kts | 108° |
| 2026-04-30 21:48 | 46.61733 | 19.82343 | 37373 ft | 497 kts | 109° |
| 2026-04-30 21:48 | 46.59207 | 19.91707 | 37364 ft | 498 kts | 109° |
| 2026-04-30 21:49 | 46.56688 | 20.01001 | 37355 ft | 498 kts | 109° |
| 2026-04-30 21:49 | 46.54142 | 20.10350 | 37342 ft | 498 kts | 109° |
| 2026-04-30 21:50 | 46.51588 | 20.19700 | 37345 ft | 498 kts | 109° |
| 2026-04-30 21:50 | 46.49032 | 20.29028 | 37341 ft | 498 kts | 109° |
| 2026-04-30 21:51 | 46.46482 | 20.38288 | 37342 ft | 497 kts | 109° |
| 2026-04-30 21:51 | 46.43911 | 20.47596 | 37341 ft | 498 kts | 109° |
| 2026-04-30 21:52 | 46.41327 | 20.56912 | 37340 ft | 498 kts | 109° |
| 2026-04-30 21:52 | 46.38734 | 20.66226 | 37336 ft | 499 kts | 109° |
| 2026-04-30 21:53 | 46.36146 | 20.75481 | 37340 ft | 499 kts | 109° |
| 2026-04-30 21:53 | 46.33536 | 20.84781 | 37333 ft | 499 kts | 110° |
| 2026-04-30 21:54 | 46.30912 | 20.94097 | 37322 ft | 500 kts | 110° |
| 2026-04-30 21:54 | 46.28281 | 21.03405 | 37320 ft | 501 kts | 110° |
| 2026-04-30 21:55 | 46.25650 | 21.12672 | 37323 ft | 501 kts | 110° |
| 2026-04-30 21:55 | 46.22989 | 21.21977 | 37332 ft | 501 kts | 110° |
| 2026-04-30 21:56 | 46.20316 | 21.31274 | 37321 ft | 502 kts | 110° |
| 2026-04-30 21:56 | 46.17651 | 21.40514 | 37322 ft | 503 kts | 110° |
| 2026-04-30 21:57 | 46.14956 | 21.49816 | 37319 ft | 503 kts | 110° |
| 2026-04-30 21:57 | 46.12251 | 21.59124 | 37335 ft | 503 kts | 111° |
| 2026-04-30 21:58 | 46.09537 | 21.68435 | 37334 ft | 505 kts | 111° |
| 2026-04-30 21:58 | 46.06812 | 21.77744 | 37321 ft | 505 kts | 111° |
| 2026-04-30 21:59 | 46.04095 | 21.86990 | 37336 ft | 505 kts | 111° |
| 2026-04-30 22:00 | 45.99976 | 22.00946 | 37354 ft | 506 kts | 111° |
| 2026-04-30 22:00 | 45.95828 | 22.14925 | 37340 ft | 507 kts | 111° |
| 2026-04-30 22:01 | 45.93073 | 22.24163 | 37343 ft | 506 kts | 111° |
| 2026-04-30 22:01 | 45.90289 | 22.33467 | 37346 ft | 508 kts | 111° |
| 2026-04-30 22:02 | 45.87490 | 22.42790 | 37346 ft | 508 kts | 111° |
| 2026-04-30 22:02 | 45.84683 | 22.52099 | 37346 ft | 509 kts | 111° |
| 2026-04-30 22:03 | 45.81882 | 22.61351 | 37359 ft | 509 kts | 112° |
| 2026-04-30 22:03 | 45.79532 | 22.69083 | 37357 ft | 509 kts | 112° |
| 2026-04-30 22:04 | 45.76215 | 22.79963 | 37358 ft | 510 kts | 112° |
| 2026-04-30 22:05 | 45.71964 | 22.93834 | 37369 ft | 510 kts | 112° |
| 2026-04-30 22:05 | 45.69101 | 23.03137 | 37363 ft | 511 kts | 112° |
| 2026-04-30 22:06 | 45.66229 | 23.12437 | 37364 ft | 512 kts | 112° |
| 2026-04-30 22:06 | 45.61908 | 23.26372 | 37367 ft | 511 kts | 112° |
| 2026-04-30 22:07 | 45.59032 | 23.35600 | 37367 ft | 513 kts | 113° |
| 2026-04-30 22:07 | 45.56126 | 23.44897 | 37366 ft | 513 kts | 113° |
| 2026-04-30 22:08 | 45.53205 | 23.54199 | 37368 ft | 513 kts | 113° |
| 2026-04-30 22:08 | 45.50280 | 23.63481 | 37366 ft | 514 kts | 113° |
| 2026-04-30 22:09 | 45.47843 | 23.71185 | 37366 ft | 513 kts | 113° |
| 2026-04-30 22:09 | 45.44426 | 23.81960 | 37368 ft | 513 kts | 113° |
| 2026-04-30 22:10 | 45.41478 | 23.91217 | 37362 ft | 513 kts | 113° |
| 2026-04-30 22:10 | 45.38521 | 24.00462 | 37365 ft | 515 kts | 114° |
| 2026-04-30 22:11 | 45.34563 | 24.12800 | 37369 ft | 515 kts | 114° |
| 2026-04-30 22:12 | 45.31094 | 24.23561 | 37364 ft | 516 kts | 114° |
| 2026-04-30 22:12 | 45.28585 | 24.31314 | 37370 ft | 516 kts | 114° |
| 2026-04-30 22:13 | 45.25601 | 24.40502 | 37369 ft | 516 kts | 114° |
| 2026-04-30 22:13 | 45.22586 | 24.49757 | 37367 ft | 516 kts | 114° |
| 2026-04-30 22:14 | 45.19570 | 24.58984 | 37368 ft | 516 kts | 114° |
| 2026-04-30 22:14 | 45.16545 | 24.68216 | 37370 ft | 517 kts | 115° |
| 2026-04-30 22:15 | 45.13525 | 24.77389 | 37369 ft | 517 kts | 115° |
| 2026-04-30 22:15 | 45.10478 | 24.86611 | 37366 ft | 517 kts | 115° |
| 2026-04-30 22:16 | 45.07422 | 24.95831 | 37361 ft | 517 kts | 115° |
| 2026-04-30 22:17 | 45.01305 | 25.14186 | 37359 ft | 518 kts | 115° |
| 2026-04-30 22:17 | 44.96683 | 25.27973 | 37346 ft | 518 kts | 116° |
| 2026-04-30 22:18 | 44.92039 | 25.41755 | 37351 ft | 519 kts | 116° |
| 2026-04-30 22:19 | 44.87378 | 25.55514 | 37343 ft | 518 kts | 116° |
| 2026-04-30 22:20 | 44.82710 | 25.69216 | 37343 ft | 520 kts | 116° |
| 2026-04-30 22:20 | 44.77994 | 25.83000 | 37336 ft | 521 kts | 116° |
| 2026-04-30 22:21 | 44.74840 | 25.92177 | 37340 ft | 522 kts | 117° |
| 2026-04-30 22:21 | 44.71685 | 26.01321 | 37343 ft | 523 kts | 117° |
| 2026-04-30 22:22 | 44.68500 | 26.10516 | 37346 ft | 523 kts | 117° |
| 2026-04-30 22:22 | 44.65308 | 26.19714 | 37344 ft | 523 kts | 117° |
| 2026-04-30 22:23 | 44.62111 | 26.28892 | 37323 ft | 524 kts | 117° |
| 2026-04-30 22:23 | 44.58921 | 26.38019 | 37320 ft | 524 kts | 117° |
| 2026-04-30 22:24 | 44.55704 | 26.47189 | 37320 ft | 524 kts | 117° |
| 2026-04-30 22:24 | 44.52475 | 26.56360 | 37314 ft | 524 kts | 117° |
| 2026-04-30 22:25 | 44.49242 | 26.65513 | 37316 ft | 524 kts | 118° |
| 2026-04-30 22:25 | 44.46023 | 26.74597 | 37315 ft | 524 kts | 118° |
| 2026-04-30 22:26 | 44.41149 | 26.88295 | 37310 ft | 524 kts | 118° |
| 2026-04-30 22:27 | 44.37889 | 26.97412 | 37310 ft | 524 kts | 118° |
| 2026-04-30 22:27 | 44.33009 | 27.11009 | 37311 ft | 524 kts | 118° |
| 2026-04-30 22:28 | 44.28086 | 27.24664 | 37302 ft | 526 kts | 118° |
| 2026-04-30 22:29 | 44.21504 | 27.42820 | 37292 ft | 525 kts | 119° |
| 2026-04-30 22:31 | 44.09865 | 27.74610 | 37288 ft | 527 kts | 120° |
| 2026-04-30 22:32 | 44.01506 | 27.97227 | 37286 ft | 527 kts | 120° |
| 2026-04-30 22:33 | 43.93101 | 28.19774 | 37276 ft | 528 kts | 120° |
| 2026-04-30 22:35 | 43.84631 | 28.42323 | 37258 ft | 527 kts | 121° |
| 2026-04-30 22:36 | 43.76196 | 28.64597 | 37230 ft | 527 kts | 121° |
| 2026-04-30 22:37 | 43.69155 | 28.82308 | 37239 ft | 525 kts | 128° |
| 2026-04-30 22:38 | 43.60692 | 28.98687 | 37234 ft | 524 kts | 130° |
| 2026-04-30 22:39 | 43.54256 | 29.10872 | 37230 ft | 524 kts | 130° |
| 2026-04-30 22:40 | 43.41407 | 29.35159 | 37208 ft | 524 kts | 130° |
| 2026-04-30 22:41 | 43.30665 | 29.55310 | 37197 ft | 524 kts | 131° |
| 2026-04-30 22:43 | 43.17707 | 29.79444 | 37184 ft | 524 kts | 131° |
| 2026-04-30 22:44 | 43.09070 | 29.95417 | 37181 ft | 523 kts | 131° |
| 2026-04-30 22:45 | 42.96070 | 30.19298 | 37139 ft | 523 kts | 132° |
| 2026-04-30 22:47 | 42.83022 | 30.43077 | 37149 ft | 522 kts | 132° |
| 2026-04-30 22:48 | 42.74766 | 30.59372 | 37133 ft | 532 kts | 117° |
| 2026-04-30 22:49 | 42.72291 | 30.74210 | 37108 ft | 541 kts | 101° |
| 2026-04-30 22:49 | 42.70833 | 30.89384 | 37121 ft | 542 kts | 100° |
| 2026-04-30 22:51 | 42.67715 | 31.19744 | 37112 ft | 541 kts | 101° |
| 2026-04-30 22:52 | 42.66100 | 31.34936 | 37105 ft | 541 kts | 101° |
| 2026-04-30 22:53 | 42.63925 | 31.55112 | 37093 ft | 541 kts | 101° |
| 2026-04-30 22:53 | 42.62267 | 31.70260 | 37087 ft | 541 kts | 101° |
| 2026-04-30 22:55 | 42.59461 | 31.95486 | 37078 ft | 539 kts | 102° |
| 2026-04-30 22:56 | 42.57798 | 32.15663 | 37067 ft | 542 kts | 95° |
| 2026-04-30 22:57 | 42.56617 | 32.41101 | 37061 ft | 543 kts | 97° |
| 2026-04-30 22:58 | 42.55441 | 32.61544 | 37034 ft | 543 kts | 97° |
| 2026-04-30 22:59 | 42.53624 | 32.92100 | 37037 ft | 543 kts | 97° |